sensor_id;sensor_type;location;lat;lon;timestamp;pressure;altitude;pressure_sealevel;temperature;humidity
26178;BME280;13924;47.670;10.310;2023-03-04T00:00:39;94170;;;-0.2;100.0
26178;BME280;13924;47.670;10.310;2023-03-04T00:15:36;94180;;;0.0;100.0
26178;BME280;13924;47.670;10.310;2023-03-04T00:30:37;94180;;;0.3;100.0
26178;BME280;13924;47.670;10.310;2023-03-04T00:45:40;94180;;;0.3;100.0
26178;BME280;13924;47.670;10.310;2023-03-04T01:00:38;94170;;;0.2;100.0
26178;BME280;13924;47.670;10.310;2023-03-04T01:15:39;94160;;;0.3;100.0
26178;BME280;13924;47.670;10.310;2023-03-04T01:30:39;94160;;;0.5;100.0
26178;BME280;13924;47.670;10.310;2023-03-04T01:45:40;94150;;;0.6;100.0
26178;BME280;13924;47.670;10.310;2023-03-04T02:00:41;94130;;;0.7;100.0
26178;BME280;13924;47.670;10.310;2023-03-04T02:01:37;94130;;;0.7;100.0
26178;BME280;13924;47.670;10.310;2023-03-04T02:27:30;94110;;;0.8;100.0
26178;BME280;13924;47.670;10.310;2023-03-04T02:30:42;94100;;;0.7;100.0
26178;BME280;13924;47.670;10.310;2023-03-04T02:45:45;94120;;;0.7;100.0
26178;BME280;13924;47.670;10.310;2023-03-04T03:00:43;94120;;;0.6;100.0
26178;BME280;13924;47.670;10.310;2023-03-04T03:15:46;94120;;;0.6;100.0
26178;BME280;13924;47.670;10.310;2023-03-04T03:30:45;94120;;;0.6;100.0
26178;BME280;13924;47.670;10.310;2023-03-04T03:45:45;94130;;;0.5;100.0
26178;BME280;13924;47.670;10.310;2023-03-04T04:00:46;94130;;;0.4;100.0
26178;BME280;13924;47.670;10.310;2023-03-04T04:15:50;94140;;;0.2;100.0
26178;BME280;13924;47.670;10.310;2023-03-04T04:30:50;94140;;;0.2;100.0
26178;BME280;13924;47.670;10.310;2023-03-04T04:45:52;94140;;;0.1;100.0
26178;BME280;13924;47.670;10.310;2023-03-04T05:00:48;94140;;;0.1;100.0
26178;BME280;13924;47.670;10.310;2023-03-04T05:15:54;94140;;;0.1;100.0
26178;BME280;13924;47.670;10.310;2023-03-04T05:30:49;94160;;;0.3;100.0
26178;BME280;13924;47.670;10.310;2023-03-04T05:45:50;94160;;;0.3;100.0
26178;BME280;13924;47.670;10.310;2023-03-04T05:50:38;94150;;;0.3;100.0
26178;BME280;13924;47.670;10.310;2023-03-04T06:05:37;94170;;;0.3;100.0
26178;BME280;13924;47.670;10.310;2023-03-04T06:20:40;94190;;;0.2;100.0
26178;BME280;13924;47.670;10.310;2023-03-04T06:35:39;94210;;;0.3;100.0
26178;BME280;13924;47.670;10.310;2023-03-04T06:50:39;94200;;;0.4;100.0
26178;BME280;13924;47.670;10.310;2023-03-04T07:05:39;94210;;;0.5;100.0
26178;BME280;13924;47.670;10.310;2023-03-04T07:20:40;94220;;;0.7;100.0
26178;BME280;13924;47.670;10.310;2023-03-04T07:35:40;94230;;;0.6;100.0
26178;BME280;13924;47.670;10.310;2023-03-04T07:50:43;94230;;;0.7;100.0
26178;BME280;13924;47.670;10.310;2023-03-04T08:05:42;94230;;;1.5;100.0
26178;BME280;13924;47.670;10.310;2023-03-04T08:20:44;94240;;;2.0;100.0
26178;BME280;13924;47.670;10.310;2023-03-04T08:35:44;94220;;;1.6;100.0
26178;BME280;13924;47.670;10.310;2023-03-04T08:50:44;94200;;;2.0;100.0
26178;BME280;13924;47.670;10.310;2023-03-04T09:05:49;94140;;;2.6;100.0
26178;BME280;13924;47.670;10.310;2023-03-04T09:20:47;94140;;;2.6;100.0
26178;BME280;13924;47.670;10.310;2023-03-04T09:35:45;93800;;;3.6;100.0
26178;BME280;13924;47.670;10.310;2023-03-04T09:50:56;93700;;;4.2;100.0
26178;BME280;13924;47.670;10.310;2023-03-04T10:05:54;93650;;;5.2;100.0
26178;BME280;13924;47.670;10.310;2023-03-04T10:20:53;93560;;;6.3;100.0
26178;BME280;13924;47.670;10.310;2023-03-04T10:35:54;93550;;;6.1;100.0
26178;BME280;13924;47.670;10.310;2023-03-04T10:50:50;93560;;;5.3;100.0
26178;BME280;13924;47.670;10.310;2023-03-04T11:05:51;93490;;;7.5;100.0
26178;BME280;13924;47.670;10.310;2023-03-04T11:20:59;93490;;;7.5;100.0
26178;BME280;13924;47.670;10.310;2023-03-04T11:36:23;93490;;;6.7;100.0
26178;BME280;13924;47.670;10.310;2023-03-04T11:50:53;93480;;;7.2;100.0
26178;BME280;13924;47.670;10.310;2023-03-04T12:06:00;93480;;;7.2;100.0
26178;BME280;13924;47.670;10.310;2023-03-04T12:21:16;93460;;;7.4;100.0
26178;BME280;13924;47.670;10.310;2023-03-04T12:36:13;93440;;;7.4;100.0
26178;BME280;13924;47.670;10.310;2023-03-04T12:51:05;93420;;;7.1;100.0
26178;BME280;13924;47.670;10.310;2023-03-04T13:06:07;93420;;;7.1;100.0
26178;BME280;13924;47.670;10.310;2023-03-04T13:21:28;93400;;;6.3;100.0
26178;BME280;13924;47.670;10.310;2023-03-04T13:35:59;93390;;;6.8;100.0
26178;BME280;13924;47.670;10.310;2023-03-04T13:50:58;93390;;;6.8;100.0
26178;BME280;13924;47.670;10.310;2023-03-04T14:06:17;93340;;;12.9;87.8
26178;BME280;13924;47.670;10.310;2023-03-04T14:21:01;93340;;;12.9;87.8
26178;BME280;13924;47.670;10.310;2023-03-04T14:36:01;93330;;;9.4;100.0
26178;BME280;13924;47.670;10.310;2023-03-04T14:51:02;93330;;;9.4;100.0
26178;BME280;13924;47.670;10.310;2023-03-04T15:06:17;93310;;;11.7;100.0
26178;BME280;13924;47.670;10.310;2023-03-04T15:21:04;93300;;;9.2;100.0
26178;BME280;13924;47.670;10.310;2023-03-04T15:36:04;93300;;;7.7;100.0
26178;BME280;13924;47.670;10.310;2023-03-04T15:51:02;93300;;;6.8;100.0
26178;BME280;13924;47.670;10.310;2023-03-04T16:06:02;93300;;;6.9;100.0
26178;BME280;13924;47.670;10.310;2023-03-04T16:21:03;93310;;;6.8;100.0
26178;BME280;13924;47.670;10.310;2023-03-04T16:36:11;93310;;;6.3;100.0
26178;BME280;13924;47.670;10.310;2023-03-04T16:51:12;93310;;;5.9;100.0
26178;BME280;13924;47.670;10.310;2023-03-04T17:06:05;93330;;;5.6;100.0
26178;BME280;13924;47.670;10.310;2023-03-04T17:21:10;93360;;;5.0;100.0
26178;BME280;13924;47.670;10.310;2023-03-04T17:36:07;93390;;;4.6;100.0
26178;BME280;13924;47.670;10.310;2023-03-04T17:51:09;93390;;;4.6;100.0
26178;BME280;13924;47.670;10.310;2023-03-04T18:06:12;93410;;;4.1;100.0
26178;BME280;13924;47.670;10.310;2023-03-04T18:21:08;93430;;;3.7;100.0
26178;BME280;13924;47.670;10.310;2023-03-04T18:36:10;93440;;;3.6;100.0
26178;BME280;13924;47.670;10.310;2023-03-04T18:51:09;93450;;;3.4;100.0
26178;BME280;13924;47.670;10.310;2023-03-04T19:06:21;93450;;;3.4;100.0
26178;BME280;13924;47.670;10.310;2023-03-04T19:21:21;93460;;;3.1;100.0
26178;BME280;13924;47.670;10.310;2023-03-04T19:36:14;93470;;;2.9;100.0
26178;BME280;13924;47.670;10.310;2023-03-04T19:51:14;93470;;;2.7;100.0
26178;BME280;13924;47.670;10.310;2023-03-04T20:06:12;93470;;;2.5;100.0
26178;BME280;13924;47.670;10.310;2023-03-04T20:21:12;93470;;;2.5;100.0
26178;BME280;13924;47.670;10.310;2023-03-04T20:36:13;93480;;;2.3;100.0
26178;BME280;13924;47.670;10.310;2023-03-04T20:51:14;93470;;;2.2;100.0
26178;BME280;13924;47.670;10.310;2023-03-04T21:06:15;93450;;;2.2;100.0
26178;BME280;13924;47.670;10.310;2023-03-04T21:36:17;93440;;;2.1;100.0
26178;BME280;13924;47.670;10.310;2023-03-04T21:51:19;93440;;;2.1;100.0
26178;BME280;13924;47.670;10.310;2023-03-04T22:06:18;93430;;;1.8;100.0
26178;BME280;13924;47.670;10.310;2023-03-04T22:21:20;93420;;;1.9;100.0
26178;BME280;13924;47.670;10.310;2023-03-04T22:36:19;93420;;;2.0;100.0
26178;BME280;13924;47.670;10.310;2023-03-04T22:51:20;93420;;;1.7;100.0
26178;BME280;13924;47.670;10.310;2023-03-04T23:00:43;93420;;;1.7;100.0
26178;BME280;13924;47.670;10.310;2023-03-04T23:15:45;93420;;;1.8;100.0
26178;BME280;13924;47.670;10.310;2023-03-04T23:30:35;93400;;;1.7;100.0
26178;BME280;13924;47.670;10.310;2023-03-04T23:45:36;93380;;;1.6;100.0
